createdAt,value
2022-10-05T00:01:48.567Z,3.60
2022-10-05T00:06:57.212Z,2.80
2022-10-05T00:09:33.430Z,5.20
2022-10-05T00:12:15.332Z,3.00
2022-10-05T00:14:49.551Z,3.90
2022-10-05T00:17:24.160Z,4.30
2022-10-05T00:19:56.719Z,4.20
2022-10-05T00:25:04.034Z,3.50
2022-10-05T00:27:38.046Z,3.70
2022-10-05T00:30:16.634Z,3.30
2022-10-05T00:32:48.925Z,9.10
2022-10-05T00:35:22.212Z,4.70
2022-10-05T00:37:56.787Z,4.30
2022-10-05T00:40:38.581Z,5.60
2022-10-05T00:43:25.737Z,4.20
2022-10-05T00:46:02.337Z,6.20
2022-10-05T00:48:40.030Z,4.80
2022-10-05T00:51:27.361Z,5.20
2022-10-05T00:54:12.561Z,5.20
2022-10-05T00:57:12.362Z,5.10
2022-10-05T00:59:53.611Z,4.40
2022-10-05T01:02:31.930Z,4.10
2022-10-05T01:05:13.593Z,5.70
2022-10-05T01:07:51.551Z,7.60
2022-10-05T01:10:28.857Z,6.90
2022-10-05T01:13:06.946Z,6.10
2022-10-05T01:15:43.904Z,4.80
2022-10-05T01:18:22.506Z,5.40
2022-10-05T01:21:01.295Z,6.70
2022-10-05T01:24:04.212Z,3.60
2022-10-05T01:26:49.618Z,6.60
2022-10-05T01:29:25.756Z,4.10
2022-10-05T01:32:04.240Z,5.20
2022-10-05T01:34:39.665Z,7.30
2022-10-05T01:37:16.719Z,6.90
2022-10-05T01:39:57.285Z,7.50
2022-10-05T01:42:36.915Z,7.30
2022-10-05T01:45:12.503Z,7.00
2022-10-05T01:47:48.180Z,6.30
2022-10-05T01:50:27.369Z,10.20
2022-10-05T01:53:04.865Z,6.60
2022-10-05T01:55:42.714Z,15.80
2022-10-05T01:58:21.291Z,7.00
2022-10-05T02:01:00.419Z,8.20
2022-10-05T02:03:37.345Z,7.80
2022-10-05T02:06:13.591Z,12.20
2022-10-05T02:08:48.105Z,11.20
2022-10-05T02:11:21.331Z,11.60
2022-10-05T02:13:57.144Z,8.40
2022-10-05T02:16:33.077Z,10.90
2022-10-05T02:19:06.804Z,10.10
2022-10-05T02:21:39.523Z,8.70
2022-10-05T02:24:13.357Z,10.10
2022-10-05T02:26:45.743Z,9.20
2022-10-05T02:31:52.403Z,11.10
2022-10-05T02:34:29.801Z,8.80
2022-10-05T02:37:13.417Z,12.10
2022-10-05T02:39:53.672Z,9.20
2022-10-05T02:42:31.869Z,11.80
2022-10-05T02:45:11.728Z,10.00
2022-10-05T02:47:48.746Z,8.90
2022-10-05T02:50:27.377Z,11.00
2022-10-05T02:53:08.494Z,9.30
2022-10-05T02:55:45.812Z,11.10
2022-10-05T02:58:20.733Z,9.80
2022-10-05T03:00:57.101Z,10.90
2022-10-05T03:03:33.758Z,8.30
2022-10-05T03:06:10.264Z,9.60
2022-10-05T03:08:45.725Z,12.30
2022-10-05T03:11:26.911Z,11.10
2022-10-05T03:14:05.596Z,10.80
2022-10-05T03:16:47.873Z,9.70
2022-10-05T03:19:37.127Z,10.30
2022-10-05T03:22:15.692Z,9.50
2022-10-05T03:25:07.057Z,10.20
2022-10-05T03:27:45.785Z,10.20
2022-10-05T03:30:19.853Z,10.30
2022-10-05T03:32:59.968Z,10.20
2022-10-05T03:35:36.978Z,9.40
2022-10-05T03:38:13.368Z,11.00
2022-10-05T03:40:52.102Z,13.20
2022-10-05T03:43:41.456Z,10.10
2022-10-05T03:46:18.516Z,14.20
2022-10-05T03:48:56.868Z,10.00
2022-10-05T03:51:36.579Z,11.50
2022-10-05T03:54:13.401Z,10.70
2022-10-05T03:56:49.129Z,11.10
2022-10-05T03:59:25.232Z,13.20
2022-10-05T04:02:01.747Z,12.80
2022-10-05T04:04:38.928Z,12.90
2022-10-05T04:07:16.845Z,9.60
2022-10-05T04:09:50.824Z,11.80
2022-10-05T04:12:26.836Z,11.20
2022-10-05T04:15:02.076Z,10.10
2022-10-05T04:17:36.341Z,11.10
2022-10-05T04:20:16.356Z,14.80
2022-10-05T04:22:54.784Z,10.70
2022-10-05T04:25:30.060Z,10.10
2022-10-05T04:28:06.697Z,15.30
2022-10-05T04:30:42.057Z,11.50
2022-10-05T04:33:16.171Z,11.50
2022-10-05T04:36:11.011Z,11.80
2022-10-05T04:38:50.735Z,14.00
2022-10-05T04:41:35.123Z,11.50
2022-10-05T04:44:27.945Z,9.50
2022-10-05T04:47:36.046Z,9.50
2022-10-05T04:50:22.084Z,10.20
2022-10-05T04:53:05.597Z,10.00
2022-10-05T04:55:41.652Z,14.60
2022-10-05T04:58:22.131Z,13.20
2022-10-05T05:01:07.047Z,12.70
2022-10-05T05:03:53.051Z,10.60
2022-10-05T05:06:36.033Z,10.00
2022-10-05T05:10:24.487Z,12.50
2022-10-05T05:13:02.656Z,8.60
2022-10-05T05:15:43.493Z,11.20
2022-10-05T05:18:35.135Z,13.00
2022-10-05T05:21:21.455Z,13.20
2022-10-05T05:24:07.532Z,12.30
2022-10-05T05:26:56.084Z,12.80
2022-10-05T05:29:43.194Z,10.50
2022-10-05T05:34:26.553Z,11.90
2022-10-05T05:37:07.849Z,12.30
2022-10-05T05:39:47.189Z,17.50
2022-10-05T05:42:29.702Z,9.80
2022-10-05T05:45:07.842Z,14.70
2022-10-05T05:47:43.874Z,13.50
2022-10-05T05:50:32.718Z,9.40
2022-10-05T05:53:11.225Z,12.80
2022-10-05T05:55:46.368Z,9.80
2022-10-05T05:58:23.553Z,9.60
2022-10-05T06:01:01.494Z,10.70
2022-10-05T06:03:39.335Z,7.80
2022-10-05T06:06:13.208Z,12.50
2022-10-05T06:08:52.953Z,14.70
2022-10-05T06:11:28.121Z,12.40
2022-10-05T06:14:03.234Z,12.60
2022-10-05T06:16:38.744Z,19.70
2022-10-05T06:19:15.016Z,12.00
2022-10-05T06:21:49.661Z,13.00
2022-10-05T06:24:26.349Z,18.10
2022-10-05T06:27:22.880Z,13.50
2022-10-05T06:30:06.398Z,10.20
2022-10-05T06:32:52.234Z,23.30
2022-10-05T06:35:33.555Z,10.80
2022-10-05T06:38:16.925Z,18.70
2022-10-05T06:41:03.973Z,13.70
2022-10-05T06:43:47.737Z,18.10
2022-10-05T06:46:25.045Z,17.10
2022-10-05T06:49:13.589Z,12.40
2022-10-05T06:51:51.989Z,12.40
2022-10-05T06:54:43.980Z,14.50
2022-10-05T06:57:30.224Z,12.90
2022-10-05T07:00:06.090Z,14.00
2022-10-05T07:02:45.279Z,12.20
2022-10-05T07:05:47.497Z,8.30
2022-10-05T07:08:25.146Z,9.60
2022-10-05T07:11:08.400Z,9.10
2022-10-05T07:14:00.488Z,12.40
2022-10-05T07:16:42.616Z,11.60
2022-10-05T07:19:23.705Z,9.50
2022-10-05T07:22:10.730Z,5.30
2022-10-05T07:24:46.644Z,6.80
2022-10-05T07:27:21.320Z,6.30
2022-10-05T07:29:59.129Z,4.80
2022-10-05T07:32:36.736Z,6.00
2022-10-05T07:35:33.540Z,6.10
2022-10-05T07:38:08.581Z,3.30
2022-10-05T07:40:43.016Z,4.50
2022-10-05T07:43:23.125Z,4.30
2022-10-05T07:45:59.361Z,3.90
2022-10-05T07:48:39.555Z,3.40
2022-10-05T07:51:17.248Z,2.40
2022-10-05T07:54:08.177Z,5.80
2022-10-05T07:56:43.497Z,3.10
2022-10-05T07:59:21.216Z,2.70
2022-10-05T08:02:00.248Z,2.20
2022-10-05T08:04:41.782Z,4.50
2022-10-05T08:07:16.667Z,1.80
2022-10-05T08:09:54.755Z,3.30
2022-10-05T08:12:34.542Z,2.40
2022-10-05T08:15:11.292Z,4.40
2022-10-05T08:17:49.952Z,2.70
2022-10-05T08:20:40.152Z,5.90
2022-10-05T08:23:21.282Z,3.60
2022-10-05T08:26:01.515Z,4.40
2022-10-05T08:28:38.402Z,4.80
2022-10-05T08:31:18.404Z,3.00
2022-10-05T08:33:58.734Z,2.10
2022-10-05T08:36:44.922Z,2.00
2022-10-05T08:39:19.580Z,4.10
2022-10-05T08:42:06.979Z,3.00
2022-10-05T08:45:24.587Z,5.80
2022-10-05T08:48:30.119Z,3.60
2022-10-05T08:51:30.465Z,2.50
2022-10-05T08:54:21.920Z,4.60
2022-10-05T08:57:05.085Z,2.30
2022-10-05T08:59:57.546Z,4.10
2022-10-05T09:02:38.763Z,2.90
2022-10-05T09:05:28.900Z,2.30
2022-10-05T09:08:27.192Z,4.20
2022-10-05T09:11:14.751Z,2.10
2022-10-05T09:14:11.650Z,2.60
2022-10-05T09:17:00.003Z,2.60
2022-10-05T09:19:55.413Z,4.20
2022-10-05T09:22:51.441Z,1.40
2022-10-05T09:25:27.734Z,2.20
2022-10-05T09:28:05.151Z,1.90
2022-10-05T09:30:49.865Z,2.70
2022-10-05T09:33:53.250Z,2.40
2022-10-05T09:36:55.609Z,5.20
2022-10-05T09:39:48.328Z,2.40
2022-10-05T09:42:58.800Z,1.20
2022-10-05T09:45:53.426Z,1.80
2022-10-05T09:48:55.401Z,4.70
2022-10-05T09:52:06.359Z,4.70
2022-10-05T09:55:09.074Z,3.10
2022-10-05T09:58:20.637Z,2.40
2022-10-05T10:01:09.827Z,0.90
2022-10-05T10:04:07.280Z,3.40
2022-10-05T10:07:13.446Z,3.80
2022-10-05T10:09:57.867Z,1.50
2022-10-05T10:12:38.538Z,3.00
2022-10-05T10:15:35.921Z,2.70
2022-10-05T10:18:32.868Z,3.10
2022-10-05T10:21:15.604Z,2.60
2022-10-05T10:24:00.482Z,1.50
2022-10-05T10:26:58.422Z,2.10
2022-10-05T10:29:53.783Z,2.40
2022-10-05T10:33:11.916Z,2.60
2022-10-05T10:35:49.511Z,3.80
2022-10-05T10:38:36.679Z,3.70
2022-10-05T10:41:29.334Z,2.20
2022-10-05T10:46:57.681Z,5.30
2022-10-05T10:49:41.331Z,2.00
2022-10-05T10:52:31.462Z,2.10
2022-10-05T10:55:19.735Z,2.60
2022-10-05T10:58:16.507Z,1.60
2022-10-05T11:00:54.983Z,3.70
2022-10-05T11:03:57.337Z,2.00
2022-10-05T11:06:54.285Z,3.60
2022-10-05T11:09:52.177Z,2.00
2022-10-05T11:12:51.181Z,1.10
2022-10-05T11:15:51.887Z,1.40
2022-10-05T11:18:25.881Z,2.10
2022-10-05T11:21:22.056Z,3.20
2022-10-05T11:24:32.743Z,2.70
2022-10-05T11:27:31.341Z,1.30
2022-10-05T11:30:39.298Z,3.00
2022-10-05T11:33:43.083Z,1.70
2022-10-05T11:36:49.325Z,2.90
2022-10-05T11:39:37.276Z,3.30
2022-10-05T11:42:54.905Z,3.40
2022-10-05T11:45:28.937Z,4.10
2022-10-05T11:48:17.238Z,2.00
2022-10-05T11:50:59.952Z,2.30
2022-10-05T11:53:34.847Z,8.80
2022-10-05T11:56:14.817Z,2.00
2022-10-05T11:58:51.391Z,2.60
2022-10-05T12:01:28.845Z,4.40
2022-10-05T12:04:09.530Z,2.10
2022-10-05T12:06:52.585Z,3.10
2022-10-05T12:09:38.893Z,4.00
2022-10-05T12:12:18.008Z,2.40
2022-10-05T12:14:57.775Z,2.30
2022-10-05T12:17:37.074Z,3.10
2022-10-05T12:20:15.897Z,4.90
2022-10-05T12:22:52.216Z,3.00
2022-10-05T12:25:28.794Z,5.50
2022-10-05T12:28:05.126Z,2.20
2022-10-05T12:31:07.743Z,2.70
2022-10-05T12:33:44.205Z,7.30
2022-10-05T12:36:19.310Z,2.80
2022-10-05T12:38:56.664Z,4.70
2022-10-05T12:41:33.381Z,3.30
2022-10-05T12:44:13.028Z,3.50
2022-10-05T12:46:52.712Z,3.50
2022-10-05T12:49:33.387Z,2.40
2022-10-05T12:52:08.308Z,3.80
2022-10-05T12:54:47.228Z,2.70
2022-10-05T12:57:24.319Z,4.90
2022-10-05T13:00:00.389Z,2.20
2022-10-05T13:02:42.461Z,3.80
2022-10-05T13:05:27.001Z,2.80
2022-10-05T13:08:21.748Z,6.80
2022-10-05T13:11:01.709Z,4.40
2022-10-05T13:13:44.348Z,4.60
2022-10-05T13:16:27.435Z,4.60
2022-10-05T13:19:10.025Z,3.10
2022-10-05T13:21:55.215Z,3.50
2022-10-05T13:24:30.871Z,3.00
2022-10-05T13:27:08.639Z,3.40
2022-10-05T13:29:43.746Z,3.90
2022-10-05T13:32:20.804Z,2.70
2022-10-05T13:34:58.992Z,4.80
2022-10-05T13:37:40.314Z,4.00
2022-10-05T13:40:21.823Z,3.00
2022-10-05T13:42:58.051Z,5.20
2022-10-05T13:45:33.701Z,2.20
2022-10-05T13:48:16.901Z,4.90
2022-10-05T13:51:02.147Z,4.20
2022-10-05T13:53:41.256Z,2.60
2022-10-05T13:56:21.010Z,1.90
2022-10-05T13:58:56.195Z,4.00
2022-10-05T14:01:35.850Z,4.20
2022-10-05T14:04:11.503Z,2.10
2022-10-05T14:06:43.655Z,4.10
2022-10-05T14:09:30.737Z,2.40
2022-10-05T14:12:22.709Z,4.50
2022-10-05T14:14:56.489Z,4.20
2022-10-05T14:17:42.180Z,1.90
2022-10-05T14:20:25.233Z,4.50
2022-10-05T14:23:01.936Z,2.50
2022-10-05T14:25:34.853Z,2.20
2022-10-05T14:28:25.832Z,2.10
2022-10-05T14:31:02.959Z,3.30
2022-10-05T14:33:36.416Z,1.90
2022-10-05T14:36:12.456Z,3.90
2022-10-05T14:39:00.775Z,3.40
2022-10-05T14:41:37.676Z,5.40
2022-10-05T14:44:30.427Z,4.90
2022-10-05T14:49:37.546Z,6.40
2022-10-05T14:52:32.979Z,2.30
2022-10-05T14:55:17.812Z,3.30
2022-10-05T14:58:08.783Z,4.40
2022-10-05T15:00:48.929Z,4.80
2022-10-05T15:03:33.332Z,4.90
2022-10-05T15:06:07.085Z,3.70
2022-10-05T15:08:54.196Z,2.70
2022-10-05T15:11:37.592Z,2.50
2022-10-05T15:14:16.471Z,4.30
2022-10-05T15:16:49.380Z,2.20
2022-10-05T15:19:26.033Z,3.10
2022-10-05T15:22:11.581Z,2.10
2022-10-05T15:24:47.329Z,3.90
2022-10-05T15:27:26.372Z,3.00
2022-10-05T15:30:07.835Z,2.60
2022-10-05T15:32:47.657Z,3.20
2022-10-05T15:36:02.484Z,5.10
2022-10-05T15:38:39.644Z,2.60
2022-10-05T15:41:16.183Z,3.40
2022-10-05T15:44:06.622Z,3.70
2022-10-05T15:46:46.207Z,3.10
2022-10-05T15:49:25.913Z,5.40
2022-10-05T15:52:04.446Z,4.40
2022-10-05T15:57:45.548Z,5.20
2022-10-05T16:00:20.050Z,5.70
2022-10-05T16:02:58.325Z,3.90
2022-10-05T16:05:58.316Z,4.90
2022-10-05T16:08:54.360Z,6.10
2022-10-05T16:11:37.041Z,5.80
2022-10-05T16:16:50.037Z,7.50
2022-10-05T16:19:26.502Z,4.50
2022-10-05T16:22:05.151Z,6.50
2022-10-05T16:25:09.209Z,6.20
2022-10-05T16:27:52.715Z,8.50
2022-10-05T16:30:26.546Z,8.40
2022-10-05T16:33:04.716Z,9.10
2022-10-05T16:35:44.452Z,9.30
2022-10-05T16:38:26.011Z,11.30
2022-10-05T16:41:03.832Z,10.90
2022-10-05T16:43:46.049Z,6.30
2022-10-05T16:46:27.926Z,10.60
2022-10-05T16:49:07.466Z,8.90
2022-10-05T16:51:47.008Z,11.50
2022-10-05T16:54:21.670Z,8.70
2022-10-05T16:56:59.826Z,15.00
2022-10-05T17:00:08.910Z,15.00
2022-10-05T17:03:02.151Z,14.90
2022-10-05T17:05:55.783Z,9.80
2022-10-05T17:08:40.911Z,9.40
2022-10-05T17:11:23.597Z,16.40
2022-10-05T17:16:36.156Z,17.40
2022-10-05T17:19:29.164Z,15.90
2022-10-05T17:22:03.468Z,15.70
2022-10-05T17:24:50.963Z,16.40
2022-10-05T17:27:36.075Z,16.60
2022-10-05T17:30:47.489Z,15.50
2022-10-05T17:33:25.301Z,18.50
2022-10-05T17:39:14.545Z,15.90
2022-10-05T17:41:46.923Z,16.10
2022-10-05T17:44:29.364Z,17.90
2022-10-05T17:47:04.200Z,18.90
2022-10-05T17:50:16.802Z,14.30
2022-10-05T17:53:39.638Z,14.40
2022-10-05T17:56:11.839Z,17.60
2022-10-05T17:59:03.966Z,14.60
2022-10-05T18:01:38.182Z,16.70
2022-10-05T18:04:42.594Z,17.20
2022-10-05T18:07:27.808Z,12.50
2022-10-05T18:10:29.135Z,15.00
2022-10-05T18:13:33.007Z,13.70
2022-10-05T18:16:05.280Z,12.20
2022-10-05T18:18:57.398Z,14.10
2022-10-05T18:21:41.615Z,11.70
2022-10-05T18:24:39.081Z,12.80
2022-10-05T18:27:30.556Z,10.20
2022-10-05T18:30:08.922Z,15.30
2022-10-05T18:33:14.124Z,13.40
2022-10-05T18:35:53.975Z,13.30
2022-10-05T18:38:39.060Z,13.30
2022-10-05T18:41:20.208Z,15.00
2022-10-05T18:44:00.097Z,12.90
2022-10-05T18:46:39.218Z,13.10
2022-10-05T18:49:26.213Z,14.20
2022-10-05T18:52:03.929Z,12.20
2022-10-05T18:54:48.306Z,11.40
2022-10-05T18:57:40.560Z,12.60
2022-10-05T19:00:18.811Z,12.20
2022-10-05T19:02:53.795Z,11.00
2022-10-05T19:05:48.653Z,14.80
2022-10-05T19:08:27.763Z,10.40
2022-10-05T19:11:06.297Z,11.30
2022-10-05T19:13:44.918Z,10.80
2022-10-05T19:16:26.257Z,11.10
2022-10-05T19:19:12.920Z,6.40
2022-10-05T19:21:50.970Z,7.40
2022-10-05T19:24:53.110Z,8.40
2022-10-05T19:27:33.995Z,10.00
2022-10-05T19:30:19.373Z,10.60
2022-10-05T19:33:05.714Z,8.30
2022-10-05T19:35:45.109Z,8.70
2022-10-05T19:38:25.961Z,10.70
2022-10-05T19:41:05.576Z,9.10
2022-10-05T19:43:53.745Z,7.90
2022-10-05T19:46:34.909Z,7.30
2022-10-05T19:49:09.174Z,6.80
2022-10-05T19:51:51.729Z,7.20
2022-10-05T19:54:29.958Z,7.80
2022-10-05T19:57:03.033Z,9.30
2022-10-05T19:59:35.665Z,7.00
2022-10-05T20:02:07.875Z,7.00
2022-10-05T20:04:41.262Z,7.70
2022-10-05T20:07:17.439Z,8.20
2022-10-05T20:09:55.210Z,8.00
2022-10-05T20:12:50.948Z,6.70
2022-10-05T20:15:42.841Z,6.90
2022-10-05T20:18:57.021Z,7.80
2022-10-05T20:22:00.040Z,9.50
2022-10-05T20:24:33.426Z,6.30
2022-10-05T20:27:06.292Z,7.90
2022-10-05T20:29:40.558Z,6.70
2022-10-05T20:32:14.159Z,7.40
2022-10-05T20:34:49.367Z,7.90
2022-10-05T20:37:21.861Z,10.20
2022-10-05T20:39:54.139Z,6.80
2022-10-05T20:42:26.831Z,7.00
2022-10-05T20:44:59.077Z,8.70
2022-10-05T20:47:31.218Z,5.60
2022-10-05T20:50:05.185Z,6.30
2022-10-05T20:52:38.438Z,9.60
2022-10-05T20:55:12.664Z,5.70
2022-10-05T20:57:46.307Z,7.20
2022-10-05T21:00:18.787Z,6.50
2022-10-05T21:02:50.935Z,5.80
2022-10-05T21:05:23.090Z,6.10
2022-10-05T21:07:55.324Z,5.10
2022-10-05T21:10:27.413Z,6.00
2022-10-05T21:13:03.065Z,7.30
2022-10-05T21:15:35.148Z,7.10
2022-10-05T21:18:07.420Z,5.40
2022-10-05T21:20:39.509Z,5.70
2022-10-05T21:23:12.335Z,7.80
2022-10-05T21:25:44.472Z,7.70
2022-10-05T21:28:16.944Z,8.30
2022-10-05T21:30:49.160Z,6.20
2022-10-05T21:33:21.622Z,7.20
2022-10-05T21:35:53.735Z,6.60
2022-10-05T21:38:26.336Z,10.70
2022-10-05T21:40:58.848Z,9.60
2022-10-05T21:43:31.184Z,7.50
2022-10-05T21:48:36.397Z,8.30
2022-10-05T21:51:10.843Z,7.20
2022-10-05T21:53:45.795Z,9.10
2022-10-05T21:56:20.188Z,8.80
2022-10-05T21:58:53.196Z,7.10
2022-10-05T22:01:25.339Z,7.00
2022-10-05T22:03:58.032Z,6.20
2022-10-05T22:09:00.821Z,8.20
2022-10-05T22:11:32.960Z,7.20
2022-10-05T22:14:05.221Z,7.10
2022-10-05T22:16:40.295Z,6.80
2022-10-05T22:19:17.179Z,7.20
2022-10-05T22:21:49.304Z,7.40
2022-10-05T22:24:21.399Z,9.80
2022-10-05T22:26:53.733Z,8.40
2022-10-05T22:29:25.831Z,7.70
2022-10-05T22:31:59.378Z,6.90
2022-10-05T22:34:31.672Z,7.10
2022-10-05T22:37:04.254Z,6.00
2022-10-05T22:42:07.047Z,7.90
2022-10-05T22:44:40.371Z,7.40
2022-10-05T22:47:12.463Z,9.30
2022-10-05T22:49:44.657Z,11.70
2022-10-05T22:52:16.758Z,9.80
2022-10-05T22:54:48.884Z,9.80
2022-10-05T22:57:21.270Z,10.30
2022-10-05T23:02:23.984Z,9.30
2022-10-05T23:04:56.159Z,7.90
2022-10-05T23:07:28.306Z,8.20
2022-10-05T23:10:00.456Z,8.90
2022-10-05T23:12:32.681Z,11.70
2022-10-05T23:15:05.495Z,10.90
2022-10-05T23:17:39.452Z,7.70
2022-10-05T23:20:12.585Z,9.40
2022-10-05T23:22:44.678Z,9.60
2022-10-05T23:25:17.963Z,7.90
2022-10-05T23:27:50.164Z,11.90
2022-10-05T23:30:22.434Z,11.10
2022-10-05T23:32:54.766Z,15.20
2022-10-05T23:35:26.842Z,13.70
2022-10-05T23:37:59.002Z,14.30
2022-10-05T23:40:31.098Z,20.00
2022-10-05T23:43:03.170Z,12.30
2022-10-05T23:45:35.338Z,10.10
2022-10-05T23:48:07.424Z,8.40
2022-10-05T23:50:40.276Z,11.00
2022-10-05T23:53:12.390Z,10.10
2022-10-05T23:55:44.780Z,13.60
2022-10-05T23:58:17.154Z,14.80
